Atlas, MI (48411)

2:04 AM EST on January 19, 2017 (GMT -0500)
Wild Oats Farm | | Change Station

Elev 879 ft 42.93 °N, 83.49 °W | Updated 7 seconds ago

Overcast
Overcast
13.3 °F
Feels Like 13 °F
N
0.0
Wind Variable Wind from SW
Gusts 0.0 mph

Today
High -- | Low -- °F
--% Chance of Precip.
Yesterday
High -- | Low -- °F
Precip. -- in
Pressure 30.02 in
Visibility 10.0 miles
Clouds Overcast 1000 ft
Windchill 13 °F
Dew Point 12 °F
Humidity 96%
Rainfall 0.00 in
Snow Depth Not available.
7:59 AM 5:30 PM
Waning Gibbous, 56% visible
SPECI KFNT 190606Z AUTO 24012KT 10SM OVC010 01/M01 A3002 RMK AO2 T00061011
Pressure 30.02 in
Visibility 10.0 miles
Clouds Overcast 1000 ft
Windchill 13 °F
Dew Point 12 °F
Humidity 96%
Rainfall 0.00 in
Snow Depth Not available.
7:59 AM 5:30 PM
Waning Gibbous, 56% visible
SPECI KFNT 190606Z AUTO 24012KT 10SM OVC010 01/M01 A3002 RMK AO2 T00061011

Get Your Daily Forecast Email!

Thanks for signing up!

Be on the lookout for a verification email in your inbox.

You'll start receiving the daily forecast at 8 AM.

×

10-Day Weather Forecast

Almanac

Astronomy

Jan. 19, 2017 Rise Set
Actual Time
Civil Twilight
Nautical Twilight
Astronomical Twilight
Moon
Length of Visible Light
Length of Day
Tomorrow will be .
, % of the Moon is Illuminated

Today's Extremes

State Highs State Lows

Community

WunderPhotos

Upload Photos

1,962,540 photos uploaded!

WunderBlog® & News

Nearby

Air Quality

  Air Quality AQ Index Pollutant
Not available.

Snow Depth

Station Depth Elevation

Earthquake Activity

City Distance Mag. Time & Date
Minimum magnitude displayed is 2.5.

Coastal Water Temperatures

Place Temperature

Stations

Nearby Weather Stations

Station Location Temp. Windchill Dew Point Humidity Wind Precip. Elev Updated Type
                   

Watches & Warnings

There are currently no watches in effect.